sensor_id;sensor_type;location;lat;lon;timestamp;P1;durP1;ratioP1;P2;durP2;ratioP2
5587;SDS011;2816;49.778;9.986;2022-08-18T00:00:08;6.60;;;4.40;;
5587;SDS011;2816;49.778;9.986;2022-08-18T00:02:39;5.33;;;4.37;;
5587;SDS011;2816;49.778;9.986;2022-08-18T00:05:07;5.50;;;4.03;;
5587;SDS011;2816;49.778;9.986;2022-08-18T00:07:35;6.20;;;5.13;;
5587;SDS011;2816;49.778;9.986;2022-08-18T00:10:03;4.80;;;4.30;;
5587;SDS011;2816;49.778;9.986;2022-08-18T00:12:33;5.50;;;4.70;;
5587;SDS011;2816;49.778;9.986;2022-08-18T00:15:02;10.03;;;4.80;;
5587;SDS011;2816;49.778;9.986;2022-08-18T00:17:31;5.97;;;4.67;;
5587;SDS011;2816;49.778;9.986;2022-08-18T00:20:00;5.67;;;4.17;;
5587;SDS011;2816;49.778;9.986;2022-08-18T00:22:28;7.47;;;4.30;;
5587;SDS011;2816;49.778;9.986;2022-08-18T00:24:55;6.77;;;4.17;;
5587;SDS011;2816;49.778;9.986;2022-08-18T00:27:24;5.90;;;4.13;;
5587;SDS011;2816;49.778;9.986;2022-08-18T00:29:53;7.30;;;3.87;;
5587;SDS011;2816;49.778;9.986;2022-08-18T00:32:22;7.50;;;4.13;;
5587;SDS011;2816;49.778;9.986;2022-08-18T00:34:52;6.80;;;4.60;;
5587;SDS011;2816;49.778;9.986;2022-08-18T00:37:21;12.30;;;4.73;;
5587;SDS011;2816;49.778;9.986;2022-08-18T00:39:49;5.90;;;4.93;;
5587;SDS011;2816;49.778;9.986;2022-08-18T00:42:17;14.70;;;4.10;;
5587;SDS011;2816;49.778;9.986;2022-08-18T00:44:48;14.10;;;4.67;;
5587;SDS011;2816;49.778;9.986;2022-08-18T00:47:15;8.10;;;4.50;;
5587;SDS011;2816;49.778;9.986;2022-08-18T00:49:42;8.50;;;4.20;;
5587;SDS011;2816;49.778;9.986;2022-08-18T00:52:13;5.60;;;4.00;;
5587;SDS011;2816;49.778;9.986;2022-08-18T00:54:41;6.17;;;3.70;;
5587;SDS011;2816;49.778;9.986;2022-08-18T00:57:10;8.70;;;4.10;;
5587;SDS011;2816;49.778;9.986;2022-08-18T00:59:40;10.30;;;4.13;;
5587;SDS011;2816;49.778;9.986;2022-08-18T01:02:12;5.10;;;4.00;;
5587;SDS011;2816;49.778;9.986;2022-08-18T01:04:45;7.33;;;4.03;;
5587;SDS011;2816;49.778;9.986;2022-08-18T01:07:21;5.37;;;4.03;;
5587;SDS011;2816;49.778;9.986;2022-08-18T01:09:54;5.20;;;3.80;;
5587;SDS011;2816;49.778;9.986;2022-08-18T01:12:23;14.30;;;4.50;;
5587;SDS011;2816;49.778;9.986;2022-08-18T01:14:50;7.00;;;4.87;;
5587;SDS011;2816;49.778;9.986;2022-08-18T01:17:18;10.23;;;4.27;;
5587;SDS011;2816;49.778;9.986;2022-08-18T01:20:03;6.40;;;4.20;;
5587;SDS011;2816;49.778;9.986;2022-08-18T01:22:51;9.73;;;4.23;;
5587;SDS011;2816;49.778;9.986;2022-08-18T01:25:25;4.90;;;4.17;;
5587;SDS011;2816;49.778;9.986;2022-08-18T01:28:10;10.63;;;4.50;;
5587;SDS011;2816;49.778;9.986;2022-08-18T01:30:43;7.53;;;4.73;;
5587;SDS011;2816;49.778;9.986;2022-08-18T01:33:13;4.43;;;4.03;;
5587;SDS011;2816;49.778;9.986;2022-08-18T01:35:40;5.03;;;4.40;;
5587;SDS011;2816;49.778;9.986;2022-08-18T01:38:14;7.87;;;4.60;;
5587;SDS011;2816;49.778;9.986;2022-08-18T01:40:43;6.73;;;5.00;;
5587;SDS011;2816;49.778;9.986;2022-08-18T01:43:10;7.03;;;4.70;;
5587;SDS011;2816;49.778;9.986;2022-08-18T01:45:38;5.70;;;4.30;;
5587;SDS011;2816;49.778;9.986;2022-08-18T01:48:05;10.73;;;5.17;;
5587;SDS011;2816;49.778;9.986;2022-08-18T01:50:33;6.13;;;5.00;;
5587;SDS011;2816;49.778;9.986;2022-08-18T01:53:03;6.40;;;5.00;;
5587;SDS011;2816;49.778;9.986;2022-08-18T01:55:33;5.00;;;4.50;;
5587;SDS011;2816;49.778;9.986;2022-08-18T01:58:00;8.20;;;4.63;;
5587;SDS011;2816;49.778;9.986;2022-08-18T02:00:28;5.97;;;4.43;;
5587;SDS011;2816;49.778;9.986;2022-08-18T02:02:56;6.80;;;4.87;;
5587;SDS011;2816;49.778;9.986;2022-08-18T02:05:26;7.47;;;4.77;;
5587;SDS011;2816;49.778;9.986;2022-08-18T02:07:57;5.20;;;4.70;;
5587;SDS011;2816;49.778;9.986;2022-08-18T02:10:24;6.40;;;4.90;;
5587;SDS011;2816;49.778;9.986;2022-08-18T02:12:53;7.70;;;4.87;;
5587;SDS011;2816;49.778;9.986;2022-08-18T02:15:20;10.67;;;5.07;;
5587;SDS011;2816;49.778;9.986;2022-08-18T02:17:47;9.20;;;5.23;;
5587;SDS011;2816;49.778;9.986;2022-08-18T02:20:15;8.70;;;5.00;;
5587;SDS011;2816;49.778;9.986;2022-08-18T02:22:44;6.33;;;4.80;;
5587;SDS011;2816;49.778;9.986;2022-08-18T02:25:12;9.70;;;4.43;;
5587;SDS011;2816;49.778;9.986;2022-08-18T02:27:39;6.50;;;4.80;;
5587;SDS011;2816;49.778;9.986;2022-08-18T02:30:09;8.10;;;4.30;;
5587;SDS011;2816;49.778;9.986;2022-08-18T02:32:38;8.33;;;5.10;;
5587;SDS011;2816;49.778;9.986;2022-08-18T02:35:06;8.10;;;5.00;;
5587;SDS011;2816;49.778;9.986;2022-08-18T02:37:35;5.43;;;4.53;;
5587;SDS011;2816;49.778;9.986;2022-08-18T02:40:02;10.13;;;4.87;;
5587;SDS011;2816;49.778;9.986;2022-08-18T02:42:30;8.03;;;4.60;;
5587;SDS011;2816;49.778;9.986;2022-08-18T02:44:57;5.37;;;4.27;;
5587;SDS011;2816;49.778;9.986;2022-08-18T02:47:25;12.73;;;4.53;;
5587;SDS011;2816;49.778;9.986;2022-08-18T02:49:52;5.23;;;4.33;;
5587;SDS011;2816;49.778;9.986;2022-08-18T02:52:19;7.37;;;4.70;;
5587;SDS011;2816;49.778;9.986;2022-08-18T02:54:46;5.37;;;4.27;;
5587;SDS011;2816;49.778;9.986;2022-08-18T02:57:13;5.30;;;4.77;;
5587;SDS011;2816;49.778;9.986;2022-08-18T02:59:40;5.77;;;4.27;;
5587;SDS011;2816;49.778;9.986;2022-08-18T03:02:07;7.97;;;4.67;;
5587;SDS011;2816;49.778;9.986;2022-08-18T03:04:36;7.70;;;4.57;;
5587;SDS011;2816;49.778;9.986;2022-08-18T03:07:04;6.80;;;4.37;;
5587;SDS011;2816;49.778;9.986;2022-08-18T03:09:33;5.27;;;4.80;;
5587;SDS011;2816;49.778;9.986;2022-08-18T03:12:00;8.30;;;4.60;;
5587;SDS011;2816;49.778;9.986;2022-08-18T03:14:28;9.43;;;4.67;;
5587;SDS011;2816;49.778;9.986;2022-08-18T03:16:55;5.03;;;4.53;;
5587;SDS011;2816;49.778;9.986;2022-08-18T03:19:23;10.87;;;4.77;;
5587;SDS011;2816;49.778;9.986;2022-08-18T03:21:53;5.93;;;4.70;;
5587;SDS011;2816;49.778;9.986;2022-08-18T03:24:23;7.30;;;4.70;;
5587;SDS011;2816;49.778;9.986;2022-08-18T03:26:51;6.10;;;5.03;;
5587;SDS011;2816;49.778;9.986;2022-08-18T03:29:20;5.23;;;4.23;;
5587;SDS011;2816;49.778;9.986;2022-08-18T03:31:47;5.40;;;4.50;;
5587;SDS011;2816;49.778;9.986;2022-08-18T03:34:15;6.60;;;5.20;;
5587;SDS011;2816;49.778;9.986;2022-08-18T03:36:44;8.37;;;4.93;;
5587;SDS011;2816;49.778;9.986;2022-08-18T03:39:14;9.23;;;4.60;;
5587;SDS011;2816;49.778;9.986;2022-08-18T03:41:42;7.43;;;4.67;;
5587;SDS011;2816;49.778;9.986;2022-08-18T03:44:10;5.30;;;4.80;;
5587;SDS011;2816;49.778;9.986;2022-08-18T03:46:39;4.67;;;4.27;;
5587;SDS011;2816;49.778;9.986;2022-08-18T03:49:07;8.37;;;5.23;;
5587;SDS011;2816;49.778;9.986;2022-08-18T03:51:35;5.10;;;4.60;;
5587;SDS011;2816;49.778;9.986;2022-08-18T03:54:04;5.17;;;4.70;;
5587;SDS011;2816;49.778;9.986;2022-08-18T03:56:34;6.20;;;4.53;;
5587;SDS011;2816;49.778;9.986;2022-08-18T03:59:03;7.77;;;4.90;;
5587;SDS011;2816;49.778;9.986;2022-08-18T04:01:34;9.40;;;5.00;;
5587;SDS011;2816;49.778;9.986;2022-08-18T04:04:03;4.83;;;4.43;;
5587;SDS011;2816;49.778;9.986;2022-08-18T04:06:36;10.77;;;4.33;;
5587;SDS011;2816;49.778;9.986;2022-08-18T04:09:06;7.60;;;4.57;;
5587;SDS011;2816;49.778;9.986;2022-08-18T04:11:38;4.97;;;3.80;;
5587;SDS011;2816;49.778;9.986;2022-08-18T04:14:07;8.67;;;5.00;;
5587;SDS011;2816;49.778;9.986;2022-08-18T04:16:34;9.60;;;4.30;;
5587;SDS011;2816;49.778;9.986;2022-08-18T04:19:02;9.50;;;4.60;;
5587;SDS011;2816;49.778;9.986;2022-08-18T04:21:29;7.43;;;5.23;;
5587;SDS011;2816;49.778;9.986;2022-08-18T04:23:58;5.70;;;4.53;;
5587;SDS011;2816;49.778;9.986;2022-08-18T04:26:28;7.07;;;4.17;;
5587;SDS011;2816;49.778;9.986;2022-08-18T04:28:57;6.80;;;4.57;;
5587;SDS011;2816;49.778;9.986;2022-08-18T04:31:26;6.00;;;4.90;;
5587;SDS011;2816;49.778;9.986;2022-08-18T04:33:55;5.80;;;4.93;;
5587;SDS011;2816;49.778;9.986;2022-08-18T04:36:23;7.80;;;4.57;;
5587;SDS011;2816;49.778;9.986;2022-08-18T04:38:51;5.13;;;4.63;;
5587;SDS011;2816;49.778;9.986;2022-08-18T04:41:18;5.23;;;4.70;;
5587;SDS011;2816;49.778;9.986;2022-08-18T04:43:47;6.10;;;5.10;;
5587;SDS011;2816;49.778;9.986;2022-08-18T04:46:18;6.73;;;4.67;;
5587;SDS011;2816;49.778;9.986;2022-08-18T04:48:45;6.73;;;4.83;;
5587;SDS011;2816;49.778;9.986;2022-08-18T04:51:14;6.03;;;5.10;;
5587;SDS011;2816;49.778;9.986;2022-08-18T04:53:42;6.33;;;4.30;;
5587;SDS011;2816;49.778;9.986;2022-08-18T04:56:16;5.20;;;4.70;;
5587;SDS011;2816;49.778;9.986;2022-08-18T04:58:51;7.70;;;5.40;;
5587;SDS011;2816;49.778;9.986;2022-08-18T05:01:20;6.03;;;4.13;;
5587;SDS011;2816;49.778;9.986;2022-08-18T05:03:49;5.23;;;4.20;;
5587;SDS011;2816;49.778;9.986;2022-08-18T05:06:17;6.43;;;4.67;;
5587;SDS011;2816;49.778;9.986;2022-08-18T05:08:49;10.53;;;5.27;;
5587;SDS011;2816;49.778;9.986;2022-08-18T05:11:17;8.60;;;5.07;;
5587;SDS011;2816;49.778;9.986;2022-08-18T05:13:46;7.60;;;5.80;;
5587;SDS011;2816;49.778;9.986;2022-08-18T05:16:13;7.73;;;4.93;;
5587;SDS011;2816;49.778;9.986;2022-08-18T05:18:42;5.07;;;4.43;;
5587;SDS011;2816;49.778;9.986;2022-08-18T05:21:10;5.13;;;4.73;;
5587;SDS011;2816;49.778;9.986;2022-08-18T05:23:40;5.90;;;5.30;;
5587;SDS011;2816;49.778;9.986;2022-08-18T05:26:07;11.27;;;5.67;;
5587;SDS011;2816;49.778;9.986;2022-08-18T05:28:35;8.77;;;5.67;;
5587;SDS011;2816;49.778;9.986;2022-08-18T05:31:06;8.07;;;5.57;;
5587;SDS011;2816;49.778;9.986;2022-08-18T05:33:34;6.17;;;5.57;;
5587;SDS011;2816;49.778;9.986;2022-08-18T05:36:04;9.17;;;6.20;;
5587;SDS011;2816;49.778;9.986;2022-08-18T05:38:52;11.83;;;5.80;;
5587;SDS011;2816;49.778;9.986;2022-08-18T05:41:24;6.53;;;5.50;;
5587;SDS011;2816;49.778;9.986;2022-08-18T05:43:57;6.47;;;5.47;;
5587;SDS011;2816;49.778;9.986;2022-08-18T05:46:25;9.17;;;5.63;;
5587;SDS011;2816;49.778;9.986;2022-08-18T05:48:59;9.60;;;6.20;;
5587;SDS011;2816;49.778;9.986;2022-08-18T05:51:30;9.90;;;5.63;;
5587;SDS011;2816;49.778;9.986;2022-08-18T05:54:01;6.93;;;5.87;;
5587;SDS011;2816;49.778;9.986;2022-08-18T05:56:49;6.17;;;5.53;;
5587;SDS011;2816;49.778;9.986;2022-08-18T05:59:20;9.30;;;6.33;;
5587;SDS011;2816;49.778;9.986;2022-08-18T06:01:52;12.10;;;5.70;;
5587;SDS011;2816;49.778;9.986;2022-08-18T06:04:29;7.10;;;6.07;;
5587;SDS011;2816;49.778;9.986;2022-08-18T06:07:07;7.47;;;6.23;;
5587;SDS011;2816;49.778;9.986;2022-08-18T06:09:39;5.33;;;4.83;;
5587;SDS011;2816;49.778;9.986;2022-08-18T06:12:12;12.00;;;6.43;;
5587;SDS011;2816;49.778;9.986;2022-08-18T06:14:46;8.73;;;5.77;;
5587;SDS011;2816;49.778;9.986;2022-08-18T06:17:18;8.53;;;6.33;;
5587;SDS011;2816;49.778;9.986;2022-08-18T06:20:10;6.33;;;5.70;;
5587;SDS011;2816;49.778;9.986;2022-08-18T06:22:47;9.33;;;5.70;;
5587;SDS011;2816;49.778;9.986;2022-08-18T06:25:21;16.03;;;6.60;;
5587;SDS011;2816;49.778;9.986;2022-08-18T06:27:59;7.50;;;6.27;;
5587;SDS011;2816;49.778;9.986;2022-08-18T06:30:36;8.80;;;6.90;;
5587;SDS011;2816;49.778;9.986;2022-08-18T06:33:15;7.33;;;6.47;;
5587;SDS011;2816;49.778;9.986;2022-08-18T06:35:58;8.53;;;6.40;;
5587;SDS011;2816;49.778;9.986;2022-08-18T06:38:34;8.67;;;6.97;;
5587;SDS011;2816;49.778;9.986;2022-08-18T06:41:13;10.47;;;7.47;;
5587;SDS011;2816;49.778;9.986;2022-08-18T06:43:46;10.53;;;7.00;;
5587;SDS011;2816;49.778;9.986;2022-08-18T06:46:25;10.30;;;7.10;;
5587;SDS011;2816;49.778;9.986;2022-08-18T06:48:59;8.83;;;7.00;;
5587;SDS011;2816;49.778;9.986;2022-08-18T06:51:29;11.70;;;8.40;;
5587;SDS011;2816;49.778;9.986;2022-08-18T06:53:59;13.30;;;7.87;;
5587;SDS011;2816;49.778;9.986;2022-08-18T06:56:31;11.60;;;7.73;;
5587;SDS011;2816;49.778;9.986;2022-08-18T06:59:18;10.17;;;7.77;;
5587;SDS011;2816;49.778;9.986;2022-08-18T07:01:49;8.23;;;7.50;;
5587;SDS011;2816;49.778;9.986;2022-08-18T07:04:31;7.57;;;6.10;;
5587;SDS011;2816;49.778;9.986;2022-08-18T07:07:11;10.60;;;7.73;;
5587;SDS011;2816;49.778;9.986;2022-08-18T07:09:46;13.27;;;7.83;;
5587;SDS011;2816;49.778;9.986;2022-08-18T07:12:18;10.00;;;8.17;;
5587;SDS011;2816;49.778;9.986;2022-08-18T07:14:49;10.33;;;7.37;;
5587;SDS011;2816;49.778;9.986;2022-08-18T07:17:20;20.00;;;8.30;;
5587;SDS011;2816;49.778;9.986;2022-08-18T07:19:53;10.50;;;7.50;;
5587;SDS011;2816;49.778;9.986;2022-08-18T07:22:22;9.40;;;7.80;;
5587;SDS011;2816;49.778;9.986;2022-08-18T07:24:51;9.17;;;6.57;;
5587;SDS011;2816;49.778;9.986;2022-08-18T07:27:20;14.00;;;8.67;;
5587;SDS011;2816;49.778;9.986;2022-08-18T07:30:05;8.60;;;7.80;;
5587;SDS011;2816;49.778;9.986;2022-08-18T07:32:35;10.73;;;8.20;;
5587;SDS011;2816;49.778;9.986;2022-08-18T07:35:17;11.83;;;7.80;;
5587;SDS011;2816;49.778;9.986;2022-08-18T07:37:50;7.80;;;7.00;;
5587;SDS011;2816;49.778;9.986;2022-08-18T07:40:24;9.13;;;7.90;;
5587;SDS011;2816;49.778;9.986;2022-08-18T07:42:57;8.17;;;7.37;;
5587;SDS011;2816;49.778;9.986;2022-08-18T07:45:29;9.00;;;8.10;;
5587;SDS011;2816;49.778;9.986;2022-08-18T07:48:01;8.97;;;8.00;;
5587;SDS011;2816;49.778;9.986;2022-08-18T07:50:38;8.23;;;7.10;;
5587;SDS011;2816;49.778;9.986;2022-08-18T07:53:11;9.30;;;7.60;;
5587;SDS011;2816;49.778;9.986;2022-08-18T07:55:52;10.50;;;8.10;;
5587;SDS011;2816;49.778;9.986;2022-08-18T07:58:28;12.73;;;7.50;;
5587;SDS011;2816;49.778;9.986;2022-08-18T08:01:03;11.33;;;8.30;;
5587;SDS011;2816;49.778;9.986;2022-08-18T08:03:41;8.07;;;7.27;;
5587;SDS011;2816;49.778;9.986;2022-08-18T08:06:13;8.90;;;6.93;;
5587;SDS011;2816;49.778;9.986;2022-08-18T08:08:48;11.43;;;8.40;;
5587;SDS011;2816;49.778;9.986;2022-08-18T08:11:29;9.57;;;7.47;;
5587;SDS011;2816;49.778;9.986;2022-08-18T08:14:06;13.00;;;7.20;;
5587;SDS011;2816;49.778;9.986;2022-08-18T08:16:47;13.80;;;8.23;;
5587;SDS011;2816;49.778;9.986;2022-08-18T08:19:24;8.63;;;7.83;;
5587;SDS011;2816;49.778;9.986;2022-08-18T08:22:04;8.43;;;6.63;;
5587;SDS011;2816;49.778;9.986;2022-08-18T08:24:38;9.43;;;7.13;;
5587;SDS011;2816;49.778;9.986;2022-08-18T08:27:15;9.80;;;7.90;;
5587;SDS011;2816;49.778;9.986;2022-08-18T08:29:51;9.77;;;8.30;;
5587;SDS011;2816;49.778;9.986;2022-08-18T08:32:28;9.73;;;7.47;;
5587;SDS011;2816;49.778;9.986;2022-08-18T08:34:58;12.43;;;8.67;;
5587;SDS011;2816;49.778;9.986;2022-08-18T08:37:32;13.47;;;8.97;;
5587;SDS011;2816;49.778;9.986;2022-08-18T08:40:05;13.40;;;9.10;;
5587;SDS011;2816;49.778;9.986;2022-08-18T08:42:40;11.67;;;7.80;;
5587;SDS011;2816;49.778;9.986;2022-08-18T08:45:14;15.33;;;9.60;;
5587;SDS011;2816;49.778;9.986;2022-08-18T08:47:48;10.37;;;9.27;;
5587;SDS011;2816;49.778;9.986;2022-08-18T08:50:23;22.73;;;10.23;;
5587;SDS011;2816;49.778;9.986;2022-08-18T08:52:53;13.50;;;8.43;;
5587;SDS011;2816;49.778;9.986;2022-08-18T08:55:25;9.67;;;8.67;;
5587;SDS011;2816;49.778;9.986;2022-08-18T08:57:57;11.30;;;9.23;;
5587;SDS011;2816;49.778;9.986;2022-08-18T09:00:35;10.00;;;7.67;;
5587;SDS011;2816;49.778;9.986;2022-08-18T09:03:10;12.37;;;9.10;;
5587;SDS011;2816;49.778;9.986;2022-08-18T09:05:51;9.87;;;8.73;;
5587;SDS011;2816;49.778;9.986;2022-08-18T09:08:29;13.27;;;9.17;;
5587;SDS011;2816;49.778;9.986;2022-08-18T09:11:19;10.30;;;8.70;;
5587;SDS011;2816;49.778;9.986;2022-08-18T09:16:49;13.00;;;8.00;;
5587;SDS011;2816;49.778;9.986;2022-08-18T09:19:28;15.03;;;8.83;;
5587;SDS011;2816;49.778;9.986;2022-08-18T09:22:06;13.70;;;8.70;;
5587;SDS011;2816;49.778;9.986;2022-08-18T09:24:44;10.23;;;8.87;;
5587;SDS011;2816;49.778;9.986;2022-08-18T09:27:15;14.83;;;8.10;;
5587;SDS011;2816;49.778;9.986;2022-08-18T09:29:58;15.37;;;8.30;;
5587;SDS011;2816;49.778;9.986;2022-08-18T09:32:30;19.83;;;8.60;;
5587;SDS011;2816;49.778;9.986;2022-08-18T09:35:10;33.03;;;8.40;;
5587;SDS011;2816;49.778;9.986;2022-08-18T09:37:49;14.07;;;9.00;;
5587;SDS011;2816;49.778;9.986;2022-08-18T09:40:34;10.80;;;8.03;;
5587;SDS011;2816;49.778;9.986;2022-08-18T09:43:25;26.23;;;8.37;;
5587;SDS011;2816;49.778;9.986;2022-08-18T09:45:59;25.03;;;9.10;;
5587;SDS011;2816;49.778;9.986;2022-08-18T09:48:29;21.30;;;7.63;;
5587;SDS011;2816;49.778;9.986;2022-08-18T09:53:53;16.93;;;8.23;;
5587;SDS011;2816;49.778;9.986;2022-08-18T09:56:54;10.83;;;7.90;;
5587;SDS011;2816;49.778;9.986;2022-08-18T10:05:56;12.60;;;8.30;;
5587;SDS011;2816;49.778;9.986;2022-08-18T10:08:49;8.83;;;7.90;;
5587;SDS011;2816;49.778;9.986;2022-08-18T10:11:54;17.63;;;8.80;;
5587;SDS011;2816;49.778;9.986;2022-08-18T10:14:57;11.33;;;9.10;;
5587;SDS011;2816;49.778;9.986;2022-08-18T10:17:53;9.77;;;7.07;;
5587;SDS011;2816;49.778;9.986;2022-08-18T10:20:34;16.43;;;8.00;;
5587;SDS011;2816;49.778;9.986;2022-08-18T10:23:07;10.33;;;9.00;;
5587;SDS011;2816;49.778;9.986;2022-08-18T10:25:36;10.90;;;7.70;;
5587;SDS011;2816;49.778;9.986;2022-08-18T10:28:07;17.30;;;9.17;;
5587;SDS011;2816;49.778;9.986;2022-08-18T10:36:34;12.37;;;7.90;;
5587;SDS011;2816;49.778;9.986;2022-08-18T10:39:18;12.00;;;8.50;;
5587;SDS011;2816;49.778;9.986;2022-08-18T10:41:55;15.63;;;8.73;;
5587;SDS011;2816;49.778;9.986;2022-08-18T10:44:29;15.27;;;8.60;;
5587;SDS011;2816;49.778;9.986;2022-08-18T10:46:59;12.30;;;8.77;;
5587;SDS011;2816;49.778;9.986;2022-08-18T10:49:28;10.07;;;7.90;;
5587;SDS011;2816;49.778;9.986;2022-08-18T10:52:08;12.10;;;8.57;;
5587;SDS011;2816;49.778;9.986;2022-08-18T10:55:06;17.80;;;8.47;;
5587;SDS011;2816;49.778;9.986;2022-08-18T10:57:49;12.50;;;8.60;;
5587;SDS011;2816;49.778;9.986;2022-08-18T11:00:38;9.00;;;7.73;;
5587;SDS011;2816;49.778;9.986;2022-08-18T11:03:13;13.70;;;8.00;;
5587;SDS011;2816;49.778;9.986;2022-08-18T11:05:45;11.53;;;7.23;;
5587;SDS011;2816;49.778;9.986;2022-08-18T11:08:15;10.80;;;7.50;;
5587;SDS011;2816;49.778;9.986;2022-08-18T11:10:46;12.00;;;6.83;;
5587;SDS011;2816;49.778;9.986;2022-08-18T11:13:16;7.17;;;6.47;;
5587;SDS011;2816;49.778;9.986;2022-08-18T11:15:54;8.53;;;7.13;;
5587;SDS011;2816;49.778;9.986;2022-08-18T11:18:30;8.50;;;6.80;;
5587;SDS011;2816;49.778;9.986;2022-08-18T11:21:20;9.63;;;6.23;;
5587;SDS011;2816;49.778;9.986;2022-08-18T11:24:02;9.90;;;7.27;;
5587;SDS011;2816;49.778;9.986;2022-08-18T11:26:31;7.47;;;6.33;;
5587;SDS011;2816;49.778;9.986;2022-08-18T11:28:59;15.00;;;6.13;;
5587;SDS011;2816;49.778;9.986;2022-08-18T11:31:26;13.90;;;6.43;;
5587;SDS011;2816;49.778;9.986;2022-08-18T11:33:53;8.63;;;5.70;;
5587;SDS011;2816;49.778;9.986;2022-08-18T11:36:28;8.83;;;6.70;;
5587;SDS011;2816;49.778;9.986;2022-08-18T11:38:55;7.73;;;5.60;;
5587;SDS011;2816;49.778;9.986;2022-08-18T11:41:25;9.13;;;5.10;;
5587;SDS011;2816;49.778;9.986;2022-08-18T11:43:54;7.00;;;5.73;;
5587;SDS011;2816;49.778;9.986;2022-08-18T11:46:26;9.20;;;5.93;;
5587;SDS011;2816;49.778;9.986;2022-08-18T11:48:54;6.37;;;5.37;;
5587;SDS011;2816;49.778;9.986;2022-08-18T11:51:23;8.80;;;5.07;;
5587;SDS011;2816;49.778;9.986;2022-08-18T11:53:52;8.63;;;5.40;;
5587;SDS011;2816;49.778;9.986;2022-08-18T11:56:22;8.07;;;5.10;;
5587;SDS011;2816;49.778;9.986;2022-08-18T11:58:53;10.80;;;5.90;;
5587;SDS011;2816;49.778;9.986;2022-08-18T12:01:35;6.60;;;5.60;;
5587;SDS011;2816;49.778;9.986;2022-08-18T12:04:09;7.67;;;5.40;;
5587;SDS011;2816;49.778;9.986;2022-08-18T12:06:51;8.40;;;5.70;;
5587;SDS011;2816;49.778;9.986;2022-08-18T12:09:25;7.20;;;5.27;;
5587;SDS011;2816;49.778;9.986;2022-08-18T12:12:02;6.10;;;5.17;;
5587;SDS011;2816;49.778;9.986;2022-08-18T12:14:33;6.40;;;5.80;;
5587;SDS011;2816;49.778;9.986;2022-08-18T12:17:17;13.70;;;5.43;;
5587;SDS011;2816;49.778;9.986;2022-08-18T12:19:44;6.90;;;5.63;;
5587;SDS011;2816;49.778;9.986;2022-08-18T12:22:12;6.10;;;5.30;;
5587;SDS011;2816;49.778;9.986;2022-08-18T12:24:41;8.33;;;5.90;;
5587;SDS011;2816;49.778;9.986;2022-08-18T12:27:11;13.10;;;5.70;;
5587;SDS011;2816;49.778;9.986;2022-08-18T12:29:39;8.43;;;5.83;;
5587;SDS011;2816;49.778;9.986;2022-08-18T12:32:06;7.30;;;5.90;;
5587;SDS011;2816;49.778;9.986;2022-08-18T12:34:34;11.23;;;6.10;;
5587;SDS011;2816;49.778;9.986;2022-08-18T12:37:01;6.30;;;4.80;;
5587;SDS011;2816;49.778;9.986;2022-08-18T12:39:29;6.53;;;5.00;;
5587;SDS011;2816;49.778;9.986;2022-08-18T12:41:57;12.20;;;6.17;;
5587;SDS011;2816;49.778;9.986;2022-08-18T12:44:25;9.83;;;6.37;;
5587;SDS011;2816;49.778;9.986;2022-08-18T12:46:52;6.57;;;5.33;;
5587;SDS011;2816;49.778;9.986;2022-08-18T12:49:20;8.07;;;6.23;;
5587;SDS011;2816;49.778;9.986;2022-08-18T12:51:50;9.40;;;5.10;;
5587;SDS011;2816;49.778;9.986;2022-08-18T12:54:19;6.80;;;4.30;;
5587;SDS011;2816;49.778;9.986;2022-08-18T12:56:47;4.60;;;4.20;;
5587;SDS011;2816;49.778;9.986;2022-08-18T12:59:16;8.53;;;4.53;;
5587;SDS011;2816;49.778;9.986;2022-08-18T13:01:45;8.47;;;5.30;;
5587;SDS011;2816;49.778;9.986;2022-08-18T13:04:12;5.17;;;4.67;;
5587;SDS011;2816;49.778;9.986;2022-08-18T13:06:42;11.17;;;4.50;;
5587;SDS011;2816;49.778;9.986;2022-08-18T13:09:11;6.47;;;4.50;;
5587;SDS011;2816;49.778;9.986;2022-08-18T13:11:38;8.30;;;4.10;;
5587;SDS011;2816;49.778;9.986;2022-08-18T13:14:06;5.20;;;4.67;;
5587;SDS011;2816;49.778;9.986;2022-08-18T13:16:34;6.20;;;4.20;;
5587;SDS011;2816;49.778;9.986;2022-08-18T13:19:03;5.17;;;4.67;;
5587;SDS011;2816;49.778;9.986;2022-08-18T13:21:30;5.07;;;4.57;;
5587;SDS011;2816;49.778;9.986;2022-08-18T13:23:57;5.20;;;4.53;;
5587;SDS011;2816;49.778;9.986;2022-08-18T13:26:25;4.93;;;4.53;;
5587;SDS011;2816;49.778;9.986;2022-08-18T13:28:54;7.93;;;4.70;;
5587;SDS011;2816;49.778;9.986;2022-08-18T13:31:21;6.93;;;4.90;;
5587;SDS011;2816;49.778;9.986;2022-08-18T13:33:50;6.83;;;4.90;;
5587;SDS011;2816;49.778;9.986;2022-08-18T13:36:18;5.67;;;4.90;;
5587;SDS011;2816;49.778;9.986;2022-08-18T13:38:45;5.00;;;4.50;;
5587;SDS011;2816;49.778;9.986;2022-08-18T13:41:13;6.50;;;4.80;;
5587;SDS011;2816;49.778;9.986;2022-08-18T13:43:42;5.37;;;4.87;;
5587;SDS011;2816;49.778;9.986;2022-08-18T13:46:11;6.63;;;5.50;;
5587;SDS011;2816;49.778;9.986;2022-08-18T13:48:39;9.00;;;5.10;;
5587;SDS011;2816;49.778;9.986;2022-08-18T13:51:08;6.03;;;5.33;;
5587;SDS011;2816;49.778;9.986;2022-08-18T13:53:40;5.30;;;4.60;;
5587;SDS011;2816;49.778;9.986;2022-08-18T13:56:07;6.83;;;5.00;;
5587;SDS011;2816;49.778;9.986;2022-08-18T13:58:34;6.80;;;4.90;;
5587;SDS011;2816;49.778;9.986;2022-08-18T14:01:03;5.40;;;4.90;;
5587;SDS011;2816;49.778;9.986;2022-08-18T14:03:32;5.67;;;5.17;;
5587;SDS011;2816;49.778;9.986;2022-08-18T14:06:00;6.73;;;5.17;;
5587;SDS011;2816;49.778;9.986;2022-08-18T14:08:27;6.20;;;5.63;;
5587;SDS011;2816;49.778;9.986;2022-08-18T14:10:57;8.30;;;5.03;;
5587;SDS011;2816;49.778;9.986;2022-08-18T14:13:26;6.10;;;4.80;;
5587;SDS011;2816;49.778;9.986;2022-08-18T14:15:54;5.90;;;5.30;;
5587;SDS011;2816;49.778;9.986;2022-08-18T14:18:22;6.60;;;4.63;;
5587;SDS011;2816;49.778;9.986;2022-08-18T14:20:50;6.40;;;4.70;;
5587;SDS011;2816;49.778;9.986;2022-08-18T14:23:35;6.10;;;4.90;;
5587;SDS011;2816;49.778;9.986;2022-08-18T14:26:21;6.70;;;4.80;;
5587;SDS011;2816;49.778;9.986;2022-08-18T14:29:05;6.17;;;4.97;;
5587;SDS011;2816;49.778;9.986;2022-08-18T14:31:33;9.97;;;5.50;;
5587;SDS011;2816;49.778;9.986;2022-08-18T14:34:00;7.97;;;4.70;;
5587;SDS011;2816;49.778;9.986;2022-08-18T14:36:28;5.50;;;5.00;;
5587;SDS011;2816;49.778;9.986;2022-08-18T14:38:55;7.33;;;5.40;;
5587;SDS011;2816;49.778;9.986;2022-08-18T14:41:23;9.87;;;4.43;;
5587;SDS011;2816;49.778;9.986;2022-08-18T14:43:50;9.17;;;5.67;;
5587;SDS011;2816;49.778;9.986;2022-08-18T14:46:20;7.07;;;4.87;;
5587;SDS011;2816;49.778;9.986;2022-08-18T14:48:47;10.43;;;5.57;;
5587;SDS011;2816;49.778;9.986;2022-08-18T14:51:14;5.07;;;4.60;;
5587;SDS011;2816;49.778;9.986;2022-08-18T14:53:41;5.43;;;4.93;;
5587;SDS011;2816;49.778;9.986;2022-08-18T14:56:08;7.57;;;5.50;;
5587;SDS011;2816;49.778;9.986;2022-08-18T14:58:37;5.60;;;5.20;;
5587;SDS011;2816;49.778;9.986;2022-08-18T15:01:05;5.13;;;4.63;;
5587;SDS011;2816;49.778;9.986;2022-08-18T15:03:35;6.20;;;5.07;;
5587;SDS011;2816;49.778;9.986;2022-08-18T15:06:04;6.90;;;4.63;;
5587;SDS011;2816;49.778;9.986;2022-08-18T15:08:32;5.43;;;4.93;;
5587;SDS011;2816;49.778;9.986;2022-08-18T15:10:59;5.97;;;5.03;;
5587;SDS011;2816;49.778;9.986;2022-08-18T15:13:27;10.70;;;5.90;;
5587;SDS011;2816;49.778;9.986;2022-08-18T15:15:56;6.60;;;5.27;;
5587;SDS011;2816;49.778;9.986;2022-08-18T15:18:23;6.27;;;5.43;;
5587;SDS011;2816;49.778;9.986;2022-08-18T15:20:50;6.23;;;5.30;;
5587;SDS011;2816;49.778;9.986;2022-08-18T15:23:34;9.90;;;5.40;;
5587;SDS011;2816;49.778;9.986;2022-08-18T15:26:19;13.20;;;6.20;;
5587;SDS011;2816;49.778;9.986;2022-08-18T15:28:49;5.90;;;5.30;;
5587;SDS011;2816;49.778;9.986;2022-08-18T15:31:18;7.73;;;4.77;;
5587;SDS011;2816;49.778;9.986;2022-08-18T15:33:45;5.80;;;5.30;;
5587;SDS011;2816;49.778;9.986;2022-08-18T15:36:12;6.30;;;4.60;;
5587;SDS011;2816;49.778;9.986;2022-08-18T15:38:42;7.57;;;4.90;;
5587;SDS011;2816;49.778;9.986;2022-08-18T15:41:09;5.10;;;4.63;;
5587;SDS011;2816;49.778;9.986;2022-08-18T15:43:48;5.50;;;5.00;;
5587;SDS011;2816;49.778;9.986;2022-08-18T15:46:15;6.00;;;4.90;;
5587;SDS011;2816;49.778;9.986;2022-08-18T15:48:43;6.23;;;5.63;;
5587;SDS011;2816;49.778;9.986;2022-08-18T15:51:10;7.00;;;4.80;;
5587;SDS011;2816;49.778;9.986;2022-08-18T15:53:37;8.93;;;4.90;;
5587;SDS011;2816;49.778;9.986;2022-08-18T15:56:05;5.40;;;4.90;;
5587;SDS011;2816;49.778;9.986;2022-08-18T15:58:38;5.33;;;4.53;;